sensor_id;sensor_type;location;lat;lon;timestamp;P1;durP1;ratioP1;P2;durP2;ratioP2
70201;SDS011;57724;52.164;5.408;2022-08-01T00:00:06;11.57;;;4.47;;
70201;SDS011;57724;52.164;5.408;2022-08-01T00:02:35;10.85;;;4.38;;
70201;SDS011;57724;52.164;5.408;2022-08-01T00:05:07;10.50;;;4.57;;
70201;SDS011;57724;52.164;5.408;2022-08-01T00:07:35;10.45;;;4.05;;
70201;SDS011;57724;52.164;5.408;2022-08-01T00:10:02;11.43;;;4.35;;
70201;SDS011;57724;52.164;5.408;2022-08-01T00:12:30;13.00;;;4.47;;
70201;SDS011;57724;52.164;5.408;2022-08-01T00:14:57;10.38;;;4.55;;
70201;SDS011;57724;52.164;5.408;2022-08-01T00:17:24;12.98;;;4.43;;
70201;SDS011;57724;52.164;5.408;2022-08-01T00:19:51;10.80;;;4.88;;
70201;SDS011;57724;52.164;5.408;2022-08-01T00:22:18;14.00;;;4.40;;
70201;SDS011;57724;52.164;5.408;2022-08-01T00:24:45;11.10;;;4.55;;
70201;SDS011;57724;52.164;5.408;2022-08-01T00:27:12;10.30;;;4.15;;
70201;SDS011;57724;52.164;5.408;2022-08-01T00:29:39;9.63;;;4.38;;
70201;SDS011;57724;52.164;5.408;2022-08-01T00:32:25;10.38;;;4.00;;
70201;SDS011;57724;52.164;5.408;2022-08-01T00:34:52;9.00;;;3.92;;
70201;SDS011;57724;52.164;5.408;2022-08-01T00:37:19;10.20;;;3.70;;
70201;SDS011;57724;52.164;5.408;2022-08-01T00:39:45;10.32;;;3.75;;
70201;SDS011;57724;52.164;5.408;2022-08-01T00:42:12;9.43;;;3.65;;
70201;SDS011;57724;52.164;5.408;2022-08-01T00:44:39;8.18;;;3.55;;
70201;SDS011;57724;52.164;5.408;2022-08-01T00:47:07;11.88;;;3.90;;
70201;SDS011;57724;52.164;5.408;2022-08-01T00:49:34;8.85;;;3.80;;
70201;SDS011;57724;52.164;5.408;2022-08-01T00:52:02;9.63;;;4.20;;
70201;SDS011;57724;52.164;5.408;2022-08-01T00:54:31;10.02;;;4.50;;
70201;SDS011;57724;52.164;5.408;2022-08-01T00:56:58;10.27;;;4.40;;
70201;SDS011;57724;52.164;5.408;2022-08-01T00:59:25;10.20;;;3.72;;
70201;SDS011;57724;52.164;5.408;2022-08-01T01:01:53;10.23;;;4.10;;
70201;SDS011;57724;52.164;5.408;2022-08-01T01:04:21;10.00;;;4.22;;
70201;SDS011;57724;52.164;5.408;2022-08-01T01:15:08;11.73;;;4.22;;
70201;SDS011;57724;52.164;5.408;2022-08-01T01:17:51;11.43;;;4.45;;
70201;SDS011;57724;52.164;5.408;2022-08-01T01:20:23;10.25;;;4.20;;
70201;SDS011;57724;52.164;5.408;2022-08-01T01:28:55;10.75;;;4.32;;
70201;SDS011;57724;52.164;5.408;2022-08-01T01:31:31;10.43;;;5.05;;
70201;SDS011;57724;52.164;5.408;2022-08-01T01:34:06;13.00;;;4.82;;
70201;SDS011;57724;52.164;5.408;2022-08-01T01:36:35;13.02;;;4.75;;
70201;SDS011;57724;52.164;5.408;2022-08-01T01:39:03;10.20;;;4.50;;
70201;SDS011;57724;52.164;5.408;2022-08-01T01:41:29;9.82;;;4.22;;
70201;SDS011;57724;52.164;5.408;2022-08-01T01:43:57;13.02;;;4.50;;
70201;SDS011;57724;52.164;5.408;2022-08-01T01:46:26;10.70;;;4.70;;
70201;SDS011;57724;52.164;5.408;2022-08-01T01:48:57;11.20;;;4.63;;
70201;SDS011;57724;52.164;5.408;2022-08-01T01:51:25;13.55;;;4.88;;
70201;SDS011;57724;52.164;5.408;2022-08-01T01:53:54;13.68;;;5.22;;
70201;SDS011;57724;52.164;5.408;2022-08-01T01:56:23;11.40;;;4.68;;
70201;SDS011;57724;52.164;5.408;2022-08-01T01:58:54;11.25;;;4.97;;
70201;SDS011;57724;52.164;5.408;2022-08-01T02:01:25;12.85;;;5.20;;
70201;SDS011;57724;52.164;5.408;2022-08-01T02:04:14;16.45;;;5.10;;
70201;SDS011;57724;52.164;5.408;2022-08-01T02:06:43;11.18;;;4.82;;
70201;SDS011;57724;52.164;5.408;2022-08-01T02:09:14;12.20;;;4.90;;
70201;SDS011;57724;52.164;5.408;2022-08-01T02:11:44;12.07;;;5.07;;
70201;SDS011;57724;52.164;5.408;2022-08-01T02:14:33;11.93;;;5.03;;
70201;SDS011;57724;52.164;5.408;2022-08-01T02:17:01;10.93;;;4.90;;
70201;SDS011;57724;52.164;5.408;2022-08-01T02:19:30;14.45;;;5.00;;
70201;SDS011;57724;52.164;5.408;2022-08-01T02:22:08;13.65;;;5.18;;
70201;SDS011;57724;52.164;5.408;2022-08-01T02:24:45;11.43;;;5.15;;
70201;SDS011;57724;52.164;5.408;2022-08-01T02:27:33;11.02;;;4.72;;
70201;SDS011;57724;52.164;5.408;2022-08-01T02:30:05;12.13;;;5.05;;
70201;SDS011;57724;52.164;5.408;2022-08-01T02:32:38;11.80;;;4.72;;
70201;SDS011;57724;52.164;5.408;2022-08-01T02:35:09;12.18;;;5.18;;
70201;SDS011;57724;52.164;5.408;2022-08-01T02:37:39;13.90;;;5.40;;
70201;SDS011;57724;52.164;5.408;2022-08-01T02:40:12;12.02;;;4.90;;
70201;SDS011;57724;52.164;5.408;2022-08-01T02:42:42;13.93;;;5.47;;
70201;SDS011;57724;52.164;5.408;2022-08-01T02:45:11;10.95;;;4.75;;
70201;SDS011;57724;52.164;5.408;2022-08-01T02:47:39;12.35;;;4.82;;
70201;SDS011;57724;52.164;5.408;2022-08-01T02:50:09;14.32;;;5.60;;
70201;SDS011;57724;52.164;5.408;2022-08-01T02:52:38;11.45;;;4.97;;
70201;SDS011;57724;52.164;5.408;2022-08-01T02:55:08;14.20;;;5.10;;
70201;SDS011;57724;52.164;5.408;2022-08-01T02:57:36;12.98;;;5.15;;
70201;SDS011;57724;52.164;5.408;2022-08-01T03:00:17;11.27;;;5.25;;
70201;SDS011;57724;52.164;5.408;2022-08-01T03:02:45;16.25;;;5.38;;
70201;SDS011;57724;52.164;5.408;2022-08-01T03:05:14;12.32;;;5.30;;
70201;SDS011;57724;52.164;5.408;2022-08-01T03:07:43;11.55;;;5.15;;
70201;SDS011;57724;52.164;5.408;2022-08-01T03:10:13;11.95;;;5.20;;
70201;SDS011;57724;52.164;5.408;2022-08-01T03:12:42;10.82;;;4.75;;
70201;SDS011;57724;52.164;5.408;2022-08-01T03:15:13;11.13;;;5.07;;
70201;SDS011;57724;52.164;5.408;2022-08-01T03:17:42;11.45;;;5.32;;
70201;SDS011;57724;52.164;5.408;2022-08-01T03:20:12;13.70;;;5.20;;
70201;SDS011;57724;52.164;5.408;2022-08-01T03:22:41;12.90;;;5.45;;
70201;SDS011;57724;52.164;5.408;2022-08-01T03:25:09;12.20;;;5.10;;
70201;SDS011;57724;52.164;5.408;2022-08-01T03:27:39;10.77;;;4.72;;
70201;SDS011;57724;52.164;5.408;2022-08-01T03:30:08;12.43;;;5.30;;
70201;SDS011;57724;52.164;5.408;2022-08-01T03:32:36;11.35;;;4.80;;
70201;SDS011;57724;52.164;5.408;2022-08-01T03:35:03;10.85;;;4.97;;
70201;SDS011;57724;52.164;5.408;2022-08-01T03:37:38;10.65;;;5.00;;
70201;SDS011;57724;52.164;5.408;2022-08-01T03:40:31;11.70;;;5.20;;
70201;SDS011;57724;52.164;5.408;2022-08-01T03:43:05;13.95;;;4.88;;
70201;SDS011;57724;52.164;5.408;2022-08-01T03:45:35;10.35;;;4.55;;
70201;SDS011;57724;52.164;5.408;2022-08-01T03:48:14;11.98;;;5.30;;
70201;SDS011;57724;52.164;5.408;2022-08-01T03:50:43;11.85;;;5.50;;
70201;SDS011;57724;52.164;5.408;2022-08-01T03:53:13;12.15;;;5.22;;
70201;SDS011;57724;52.164;5.408;2022-08-01T03:55:42;12.52;;;5.07;;
70201;SDS011;57724;52.164;5.408;2022-08-01T03:58:10;11.65;;;5.13;;
70201;SDS011;57724;52.164;5.408;2022-08-01T04:00:39;11.13;;;5.45;;
70201;SDS011;57724;52.164;5.408;2022-08-01T04:03:09;11.73;;;5.18;;
70201;SDS011;57724;52.164;5.408;2022-08-01T04:05:40;11.55;;;5.53;;
70201;SDS011;57724;52.164;5.408;2022-08-01T04:08:08;11.95;;;5.15;;
70201;SDS011;57724;52.164;5.408;2022-08-01T04:10:36;12.32;;;5.32;;
70201;SDS011;57724;52.164;5.408;2022-08-01T04:13:03;12.43;;;5.32;;
70201;SDS011;57724;52.164;5.408;2022-08-01T04:15:30;10.43;;;4.63;;
70201;SDS011;57724;52.164;5.408;2022-08-01T04:17:57;11.23;;;5.13;;
70201;SDS011;57724;52.164;5.408;2022-08-01T04:20:24;10.30;;;5.07;;
70201;SDS011;57724;52.164;5.408;2022-08-01T04:22:51;11.18;;;5.32;;
70201;SDS011;57724;52.164;5.408;2022-08-01T04:25:23;9.50;;;4.40;;
70201;SDS011;57724;52.164;5.408;2022-08-01T04:28:01;12.07;;;4.75;;
70201;SDS011;57724;52.164;5.408;2022-08-01T04:32:59;10.07;;;3.83;;
70201;SDS011;57724;52.164;5.408;2022-08-01T04:35:27;8.13;;;3.45;;
70201;SDS011;57724;52.164;5.408;2022-08-01T04:38:19;5.72;;;3.10;;
70201;SDS011;57724;52.164;5.408;2022-08-01T04:40:49;7.10;;;2.92;;
70201;SDS011;57724;52.164;5.408;2022-08-01T04:43:18;5.90;;;2.40;;
70201;SDS011;57724;52.164;5.408;2022-08-01T04:45:45;4.63;;;2.47;;
70201;SDS011;57724;52.164;5.408;2022-08-01T04:48:15;6.20;;;2.85;;
70201;SDS011;57724;52.164;5.408;2022-08-01T04:50:43;7.57;;;2.40;;
70201;SDS011;57724;52.164;5.408;2022-08-01T04:53:17;4.57;;;2.10;;
70201;SDS011;57724;52.164;5.408;2022-08-01T04:55:45;4.90;;;2.10;;
70201;SDS011;57724;52.164;5.408;2022-08-01T04:58:12;4.38;;;2.00;;
70201;SDS011;57724;52.164;5.408;2022-08-01T05:00:44;4.25;;;1.88;;
70201;SDS011;57724;52.164;5.408;2022-08-01T05:03:11;4.13;;;1.90;;
70201;SDS011;57724;52.164;5.408;2022-08-01T05:05:38;3.88;;;2.00;;
70201;SDS011;57724;52.164;5.408;2022-08-01T05:08:05;4.10;;;2.10;;
70201;SDS011;57724;52.164;5.408;2022-08-01T05:10:32;3.42;;;1.83;;
70201;SDS011;57724;52.164;5.408;2022-08-01T05:12:59;3.90;;;1.98;;
70201;SDS011;57724;52.164;5.408;2022-08-01T05:15:27;4.78;;;2.30;;
70201;SDS011;57724;52.164;5.408;2022-08-01T05:17:54;3.47;;;1.90;;
70201;SDS011;57724;52.164;5.408;2022-08-01T05:20:20;4.60;;;2.03;;
70201;SDS011;57724;52.164;5.408;2022-08-01T05:22:47;2.53;;;1.70;;
70201;SDS011;57724;52.164;5.408;2022-08-01T05:25:14;3.03;;;2.00;;
70201;SDS011;57724;52.164;5.408;2022-08-01T05:27:46;4.15;;;1.92;;
70201;SDS011;57724;52.164;5.408;2022-08-01T05:30:17;3.35;;;2.05;;
70201;SDS011;57724;52.164;5.408;2022-08-01T05:32:44;4.45;;;2.13;;
70201;SDS011;57724;52.164;5.408;2022-08-01T05:35:10;4.30;;;2.28;;
70201;SDS011;57724;52.164;5.408;2022-08-01T05:37:37;4.57;;;2.13;;
70201;SDS011;57724;52.164;5.408;2022-08-01T05:40:04;2.88;;;2.03;;
70201;SDS011;57724;52.164;5.408;2022-08-01T05:42:31;4.50;;;2.00;;
70201;SDS011;57724;52.164;5.408;2022-08-01T05:44:59;5.40;;;2.50;;
70201;SDS011;57724;52.164;5.408;2022-08-01T05:47:26;3.88;;;2.10;;
70201;SDS011;57724;52.164;5.408;2022-08-01T05:49:53;6.28;;;2.25;;
70201;SDS011;57724;52.164;5.408;2022-08-01T05:52:19;4.43;;;2.13;;
70201;SDS011;57724;52.164;5.408;2022-08-01T05:54:46;4.20;;;2.03;;
70201;SDS011;57724;52.164;5.408;2022-08-01T05:57:13;5.10;;;2.22;;
70201;SDS011;57724;52.164;5.408;2022-08-01T05:59:40;3.47;;;2.10;;
70201;SDS011;57724;52.164;5.408;2022-08-01T06:02:07;5.05;;;2.08;;
70201;SDS011;57724;52.164;5.408;2022-08-01T06:04:35;4.57;;;2.03;;
70201;SDS011;57724;52.164;5.408;2022-08-01T06:07:02;2.92;;;2.10;;
70201;SDS011;57724;52.164;5.408;2022-08-01T06:09:29;4.97;;;2.22;;
70201;SDS011;57724;52.164;5.408;2022-08-01T06:11:57;4.55;;;2.40;;
70201;SDS011;57724;52.164;5.408;2022-08-01T06:14:23;7.80;;;3.08;;
70201;SDS011;57724;52.164;5.408;2022-08-01T06:16:51;7.10;;;2.50;;
70201;SDS011;57724;52.164;5.408;2022-08-01T06:19:17;6.18;;;2.30;;
70201;SDS011;57724;52.164;5.408;2022-08-01T06:21:44;4.15;;;2.40;;
70201;SDS011;57724;52.164;5.408;2022-08-01T06:24:11;4.68;;;2.30;;
70201;SDS011;57724;52.164;5.408;2022-08-01T06:26:38;4.85;;;2.25;;
70201;SDS011;57724;52.164;5.408;2022-08-01T06:29:05;5.60;;;2.80;;
70201;SDS011;57724;52.164;5.408;2022-08-01T06:31:35;7.18;;;2.40;;
70201;SDS011;57724;52.164;5.408;2022-08-01T06:34:02;5.00;;;2.40;;
70201;SDS011;57724;52.164;5.408;2022-08-01T06:36:29;4.55;;;2.60;;
70201;SDS011;57724;52.164;5.408;2022-08-01T06:38:55;4.15;;;2.38;;
70201;SDS011;57724;52.164;5.408;2022-08-01T06:41:22;5.45;;;2.78;;
70201;SDS011;57724;52.164;5.408;2022-08-01T06:43:49;6.00;;;2.70;;
70201;SDS011;57724;52.164;5.408;2022-08-01T06:46:16;6.18;;;2.80;;
70201;SDS011;57724;52.164;5.408;2022-08-01T06:48:43;9.50;;;3.70;;
70201;SDS011;57724;52.164;5.408;2022-08-01T06:51:10;8.35;;;4.03;;
70201;SDS011;57724;52.164;5.408;2022-08-01T06:53:41;4.90;;;2.47;;
70201;SDS011;57724;52.164;5.408;2022-08-01T06:56:09;6.70;;;2.78;;
70201;SDS011;57724;52.164;5.408;2022-08-01T06:58:36;5.53;;;2.70;;
70201;SDS011;57724;52.164;5.408;2022-08-01T07:01:04;6.55;;;2.67;;
70201;SDS011;57724;52.164;5.408;2022-08-01T07:03:34;6.50;;;2.72;;
70201;SDS011;57724;52.164;5.408;2022-08-01T07:06:20;9.00;;;3.72;;
70201;SDS011;57724;52.164;5.408;2022-08-01T07:08:48;26.45;;;16.75;;
70201;SDS011;57724;52.164;5.408;2022-08-01T07:11:15;8.80;;;3.70;;
70201;SDS011;57724;52.164;5.408;2022-08-01T07:13:42;7.45;;;3.33;;
70201;SDS011;57724;52.164;5.408;2022-08-01T07:16:11;5.90;;;2.70;;
70201;SDS011;57724;52.164;5.408;2022-08-01T07:18:39;7.97;;;3.67;;
70201;SDS011;57724;52.164;5.408;2022-08-01T07:21:06;13.98;;;6.32;;
70201;SDS011;57724;52.164;5.408;2022-08-01T07:23:53;6.55;;;2.80;;
70201;SDS011;57724;52.164;5.408;2022-08-01T07:26:21;6.57;;;2.83;;
70201;SDS011;57724;52.164;5.408;2022-08-01T07:28:48;8.93;;;3.35;;
70201;SDS011;57724;52.164;5.408;2022-08-01T07:31:15;8.10;;;3.13;;
70201;SDS011;57724;52.164;5.408;2022-08-01T07:33:42;9.57;;;3.50;;
70201;SDS011;57724;52.164;5.408;2022-08-01T07:36:15;7.53;;;3.20;;
70201;SDS011;57724;52.164;5.408;2022-08-01T07:38:43;11.00;;;3.10;;
70201;SDS011;57724;52.164;5.408;2022-08-01T07:41:10;6.68;;;3.15;;
70201;SDS011;57724;52.164;5.408;2022-08-01T07:43:37;9.45;;;3.60;;
70201;SDS011;57724;52.164;5.408;2022-08-01T07:46:04;12.15;;;2.90;;
70201;SDS011;57724;52.164;5.408;2022-08-01T07:48:31;11.20;;;3.20;;
70201;SDS011;57724;52.164;5.408;2022-08-01T07:50:59;15.10;;;3.10;;
70201;SDS011;57724;52.164;5.408;2022-08-01T07:53:26;15.68;;;3.60;;
70201;SDS011;57724;52.164;5.408;2022-08-01T07:55:53;11.95;;;2.90;;
70201;SDS011;57724;52.164;5.408;2022-08-01T07:58:20;10.70;;;2.78;;
70201;SDS011;57724;52.164;5.408;2022-08-01T08:00:46;17.38;;;3.25;;
70201;SDS011;57724;52.164;5.408;2022-08-01T08:03:13;14.60;;;3.25;;
70201;SDS011;57724;52.164;5.408;2022-08-01T08:05:40;12.45;;;3.00;;
70201;SDS011;57724;52.164;5.408;2022-08-01T08:08:25;11.88;;;2.83;;
70201;SDS011;57724;52.164;5.408;2022-08-01T08:10:52;12.70;;;2.92;;
70201;SDS011;57724;52.164;5.408;2022-08-01T08:13:19;15.05;;;3.00;;
70201;SDS011;57724;52.164;5.408;2022-08-01T08:15:47;16.75;;;2.85;;
70201;SDS011;57724;52.164;5.408;2022-08-01T08:18:14;12.82;;;3.25;;
70201;SDS011;57724;52.164;5.408;2022-08-01T08:20:41;12.20;;;3.22;;
70201;SDS011;57724;52.164;5.408;2022-08-01T08:23:08;14.00;;;3.05;;
70201;SDS011;57724;52.164;5.408;2022-08-01T08:26:11;13.13;;;2.83;;
70201;SDS011;57724;52.164;5.408;2022-08-01T08:28:38;15.93;;;3.10;;
70201;SDS011;57724;52.164;5.408;2022-08-01T08:31:06;14.15;;;3.33;;
70201;SDS011;57724;52.164;5.408;2022-08-01T08:33:54;13.63;;;3.17;;
70201;SDS011;57724;52.164;5.408;2022-08-01T08:36:21;15.82;;;3.03;;
70201;SDS011;57724;52.164;5.408;2022-08-01T08:38:56;14.30;;;3.03;;
70201;SDS011;57724;52.164;5.408;2022-08-01T08:41:23;9.57;;;3.03;;
70201;SDS011;57724;52.164;5.408;2022-08-01T08:43:50;9.88;;;2.80;;
70201;SDS011;57724;52.164;5.408;2022-08-01T08:46:17;11.98;;;2.80;;
70201;SDS011;57724;52.164;5.408;2022-08-01T08:48:54;9.98;;;2.70;;
70201;SDS011;57724;52.164;5.408;2022-08-01T08:51:22;10.20;;;2.38;;
70201;SDS011;57724;52.164;5.408;2022-08-01T08:53:51;7.30;;;2.40;;
70201;SDS011;57724;52.164;5.408;2022-08-01T08:56:21;9.43;;;2.42;;
70201;SDS011;57724;52.164;5.408;2022-08-01T08:58:53;6.88;;;2.30;;
70201;SDS011;57724;52.164;5.408;2022-08-01T09:01:20;7.60;;;2.40;;
70201;SDS011;57724;52.164;5.408;2022-08-01T09:03:48;9.15;;;2.40;;
70201;SDS011;57724;52.164;5.408;2022-08-01T09:06:15;10.45;;;2.65;;
70201;SDS011;57724;52.164;5.408;2022-08-01T09:08:42;7.63;;;2.10;;
70201;SDS011;57724;52.164;5.408;2022-08-01T09:11:09;11.02;;;2.28;;
70201;SDS011;57724;52.164;5.408;2022-08-01T09:13:39;8.98;;;2.13;;
70201;SDS011;57724;52.164;5.408;2022-08-01T09:16:15;7.70;;;2.00;;
70201;SDS011;57724;52.164;5.408;2022-08-01T09:18:43;5.70;;;2.10;;
70201;SDS011;57724;52.164;5.408;2022-08-01T09:21:19;9.18;;;2.15;;
70201;SDS011;57724;52.164;5.408;2022-08-01T09:23:53;8.20;;;2.20;;
70201;SDS011;57724;52.164;5.408;2022-08-01T09:26:22;8.90;;;2.38;;
70201;SDS011;57724;52.164;5.408;2022-08-01T09:29:04;7.00;;;2.17;;
70201;SDS011;57724;52.164;5.408;2022-08-01T09:31:41;12.15;;;2.20;;
70201;SDS011;57724;52.164;5.408;2022-08-01T09:34:13;7.93;;;2.30;;
70201;SDS011;57724;52.164;5.408;2022-08-01T09:36:58;10.32;;;2.15;;
70201;SDS011;57724;52.164;5.408;2022-08-01T09:39:26;10.23;;;2.10;;
70201;SDS011;57724;52.164;5.408;2022-08-01T09:41:55;10.70;;;2.17;;
70201;SDS011;57724;52.164;5.408;2022-08-01T09:44:38;6.10;;;1.50;;
70201;SDS011;57724;52.164;5.408;2022-08-01T09:47:20;7.35;;;1.80;;
70201;SDS011;57724;52.164;5.408;2022-08-01T09:49:56;6.00;;;1.65;;
70201;SDS011;57724;52.164;5.408;2022-08-01T09:52:25;5.50;;;1.50;;
70201;SDS011;57724;52.164;5.408;2022-08-01T09:54:58;8.00;;;1.63;;
70201;SDS011;57724;52.164;5.408;2022-08-01T09:57:31;6.60;;;2.00;;
70201;SDS011;57724;52.164;5.408;2022-08-01T09:59:59;7.45;;;1.98;;
70201;SDS011;57724;52.164;5.408;2022-08-01T10:02:38;7.53;;;1.92;;
70201;SDS011;57724;52.164;5.408;2022-08-01T10:05:07;4.18;;;1.50;;
70201;SDS011;57724;52.164;5.408;2022-08-01T10:07:59;8.30;;;1.73;;
70201;SDS011;57724;52.164;5.408;2022-08-01T10:10:33;10.00;;;2.00;;
70201;SDS011;57724;52.164;5.408;2022-08-01T10:13:02;8.02;;;1.92;;
70201;SDS011;57724;52.164;5.408;2022-08-01T10:15:30;7.78;;;1.90;;
70201;SDS011;57724;52.164;5.408;2022-08-01T10:18:04;8.02;;;1.83;;
70201;SDS011;57724;52.164;5.408;2022-08-01T10:20:51;6.85;;;1.60;;
70201;SDS011;57724;52.164;5.408;2022-08-01T10:23:22;7.00;;;1.65;;
70201;SDS011;57724;52.164;5.408;2022-08-01T10:26:07;7.50;;;1.50;;
70201;SDS011;57724;52.164;5.408;2022-08-01T10:28:35;7.30;;;1.65;;
70201;SDS011;57724;52.164;5.408;2022-08-01T10:31:05;8.00;;;1.50;;
70201;SDS011;57724;52.164;5.408;2022-08-01T10:33:38;5.60;;;1.45;;
70201;SDS011;57724;52.164;5.408;2022-08-01T10:36:19;7.25;;;1.38;;
70201;SDS011;57724;52.164;5.408;2022-08-01T10:38:48;8.18;;;1.88;;
70201;SDS011;57724;52.164;5.408;2022-08-01T10:41:16;10.48;;;2.33;;
70201;SDS011;57724;52.164;5.408;2022-08-01T10:43:45;7.22;;;2.00;;
70201;SDS011;57724;52.164;5.408;2022-08-01T10:46:12;7.10;;;1.98;;
70201;SDS011;57724;52.164;5.408;2022-08-01T10:51:26;11.25;;;2.05;;
70201;SDS011;57724;52.164;5.408;2022-08-01T10:54:14;8.23;;;2.45;;
70201;SDS011;57724;52.164;5.408;2022-08-01T10:56:44;9.80;;;2.30;;
70201;SDS011;57724;52.164;5.408;2022-08-01T10:59:15;9.68;;;1.92;;
70201;SDS011;57724;52.164;5.408;2022-08-01T11:02:25;8.20;;;1.98;;
70201;SDS011;57724;52.164;5.408;2022-08-01T11:05:00;10.27;;;2.08;;
70201;SDS011;57724;52.164;5.408;2022-08-01T11:07:38;9.60;;;1.85;;
70201;SDS011;57724;52.164;5.408;2022-08-01T11:10:15;10.27;;;2.10;;
70201;SDS011;57724;52.164;5.408;2022-08-01T11:12:58;10.88;;;2.30;;
70201;SDS011;57724;52.164;5.408;2022-08-01T11:15:29;11.27;;;2.17;;
70201;SDS011;57724;52.164;5.408;2022-08-01T11:17:57;10.43;;;2.20;;
70201;SDS011;57724;52.164;5.408;2022-08-01T11:20:27;8.95;;;2.08;;
70201;SDS011;57724;52.164;5.408;2022-08-01T11:28:25;9.45;;;2.13;;
70201;SDS011;57724;52.164;5.408;2022-08-01T11:38:44;7.13;;;2.00;;
70201;SDS011;57724;52.164;5.408;2022-08-01T11:44:23;5.15;;;1.75;;
70201;SDS011;57724;52.164;5.408;2022-08-01T11:54:35;5.47;;;1.60;;
70201;SDS011;57724;52.164;5.408;2022-08-01T11:57:08;8.60;;;1.90;;
70201;SDS011;57724;52.164;5.408;2022-08-01T11:59:42;10.13;;;1.70;;
70201;SDS011;57724;52.164;5.408;2022-08-01T12:02:38;6.45;;;1.60;;
70201;SDS011;57724;52.164;5.408;2022-08-01T12:05:06;7.38;;;1.55;;
70201;SDS011;57724;52.164;5.408;2022-08-01T12:07:41;5.95;;;1.42;;
70201;SDS011;57724;52.164;5.408;2022-08-01T12:10:10;12.48;;;1.70;;
70201;SDS011;57724;52.164;5.408;2022-08-01T12:12:45;5.72;;;1.70;;
70201;SDS011;57724;52.164;5.408;2022-08-01T12:15:14;6.18;;;1.48;;
70201;SDS011;57724;52.164;5.408;2022-08-01T12:17:43;6.05;;;1.55;;
70201;SDS011;57724;52.164;5.408;2022-08-01T12:20:24;5.68;;;1.42;;
70201;SDS011;57724;52.164;5.408;2022-08-01T12:22:57;6.55;;;1.52;;
70201;SDS011;57724;52.164;5.408;2022-08-01T12:25:29;7.15;;;1.58;;
70201;SDS011;57724;52.164;5.408;2022-08-01T12:27:58;5.75;;;1.48;;
70201;SDS011;57724;52.164;5.408;2022-08-01T12:30:28;5.60;;;1.50;;
70201;SDS011;57724;52.164;5.408;2022-08-01T12:33:02;4.80;;;1.50;;
70201;SDS011;57724;52.164;5.408;2022-08-01T12:35:31;6.30;;;1.73;;
70201;SDS011;57724;52.164;5.408;2022-08-01T12:38:00;7.00;;;1.63;;
70201;SDS011;57724;52.164;5.408;2022-08-01T12:40:32;7.43;;;1.30;;
70201;SDS011;57724;52.164;5.408;2022-08-01T12:43:04;6.50;;;1.48;;
70201;SDS011;57724;52.164;5.408;2022-08-01T12:45:35;8.35;;;1.50;;
70201;SDS011;57724;52.164;5.408;2022-08-01T12:48:22;5.82;;;1.20;;
70201;SDS011;57724;52.164;5.408;2022-08-01T12:50:50;4.15;;;1.40;;
70201;SDS011;57724;52.164;5.408;2022-08-01T12:53:23;4.47;;;1.40;;
70201;SDS011;57724;52.164;5.408;2022-08-01T12:55:53;8.60;;;2.00;;
70201;SDS011;57724;52.164;5.408;2022-08-01T12:58:29;3.58;;;1.52;;
70201;SDS011;57724;52.164;5.408;2022-08-01T13:01:09;3.00;;;1.05;;
70201;SDS011;57724;52.164;5.408;2022-08-01T13:06:11;3.72;;;1.38;;
70201;SDS011;57724;52.164;5.408;2022-08-01T13:08:41;3.35;;;1.10;;
70201;SDS011;57724;52.164;5.408;2022-08-01T13:11:09;3.35;;;1.05;;
70201;SDS011;57724;52.164;5.408;2022-08-01T13:13:45;2.50;;;1.00;;
70201;SDS011;57724;52.164;5.408;2022-08-01T13:16:16;4.43;;;1.20;;
70201;SDS011;57724;52.164;5.408;2022-08-01T13:19:05;2.42;;;1.30;;
70201;SDS011;57724;52.164;5.408;2022-08-01T13:21:32;5.15;;;1.58;;
70201;SDS011;57724;52.164;5.408;2022-08-01T13:24:29;3.00;;;1.67;;
70201;SDS011;57724;52.164;5.408;2022-08-01T13:26:56;4.20;;;1.45;;
70201;SDS011;57724;52.164;5.408;2022-08-01T13:29:30;3.47;;;1.90;;
70201;SDS011;57724;52.164;5.408;2022-08-01T13:32:14;6.90;;;1.48;;
70201;SDS011;57724;52.164;5.408;2022-08-01T13:35:05;8.05;;;1.40;;
70201;SDS011;57724;52.164;5.408;2022-08-01T13:37:35;3.40;;;1.30;;
70201;SDS011;57724;52.164;5.408;2022-08-01T13:40:04;3.80;;;1.30;;
70201;SDS011;57724;52.164;5.408;2022-08-01T13:42:32;5.07;;;1.45;;
70201;SDS011;57724;52.164;5.408;2022-08-01T13:44:59;3.08;;;1.20;;
70201;SDS011;57724;52.164;5.408;2022-08-01T13:47:28;4.30;;;1.05;;
70201;SDS011;57724;52.164;5.408;2022-08-01T13:49:58;1.83;;;0.90;;
70201;SDS011;57724;52.164;5.408;2022-08-01T13:52:28;0.73;;;0.65;;
70201;SDS011;57724;52.164;5.408;2022-08-01T13:54:55;4.32;;;1.40;;
70201;SDS011;57724;52.164;5.408;2022-08-01T13:57:22;2.67;;;1.08;;
70201;SDS011;57724;52.164;5.408;2022-08-01T13:59:49;2.90;;;1.25;;
70201;SDS011;57724;52.164;5.408;2022-08-01T14:02:18;5.68;;;1.30;;
70201;SDS011;57724;52.164;5.408;2022-08-01T14:04:46;2.75;;;1.17;;
70201;SDS011;57724;52.164;5.408;2022-08-01T14:07:13;4.60;;;1.02;;
70201;SDS011;57724;52.164;5.408;2022-08-01T14:09:40;6.78;;;2.20;;
70201;SDS011;57724;52.164;5.408;2022-08-01T14:12:28;5.55;;;1.40;;
70201;SDS011;57724;52.164;5.408;2022-08-01T14:14:55;3.72;;;1.05;;
70201;SDS011;57724;52.164;5.408;2022-08-01T14:17:22;3.92;;;1.30;;
70201;SDS011;57724;52.164;5.408;2022-08-01T14:19:49;4.47;;;1.20;;
70201;SDS011;57724;52.164;5.408;2022-08-01T14:22:16;4.65;;;1.30;;
70201;SDS011;57724;52.164;5.408;2022-08-01T14:24:42;7.25;;;1.48;;
70201;SDS011;57724;52.164;5.408;2022-08-01T14:27:09;5.10;;;1.27;;
70201;SDS011;57724;52.164;5.408;2022-08-01T14:29:36;3.25;;;1.30;;
70201;SDS011;57724;52.164;5.408;2022-08-01T14:32:23;2.42;;;1.05;;
70201;SDS011;57724;52.164;5.408;2022-08-01T14:34:54;3.22;;;1.10;;
70201;SDS011;57724;52.164;5.408;2022-08-01T14:37:22;2.33;;;1.13;;
70201;SDS011;57724;52.164;5.408;2022-08-01T14:39:55;5.03;;;1.25;;
70201;SDS011;57724;52.164;5.408;2022-08-01T14:42:32;5.22;;;1.13;;
70201;SDS011;57724;52.164;5.408;2022-08-01T14:45:02;6.20;;;1.48;;
70201;SDS011;57724;52.164;5.408;2022-08-01T14:47:30;4.97;;;1.20;;
70201;SDS011;57724;52.164;5.408;2022-08-01T14:49:57;4.10;;;1.27;;
70201;SDS011;57724;52.164;5.408;2022-08-01T14:52:23;4.40;;;1.25;;
70201;SDS011;57724;52.164;5.408;2022-08-01T14:54:50;3.78;;;1.30;;
70201;SDS011;57724;52.164;5.408;2022-08-01T14:57:17;6.82;;;1.50;;
70201;SDS011;57724;52.164;5.408;2022-08-01T14:59:44;4.47;;;1.50;;
70201;SDS011;57724;52.164;5.408;2022-08-01T15:02:11;3.65;;;1.13;;
70201;SDS011;57724;52.164;5.408;2022-08-01T15:04:43;4.68;;;1.45;;
70201;SDS011;57724;52.164;5.408;2022-08-01T15:07:13;4.70;;;1.38;;
70201;SDS011;57724;52.164;5.408;2022-08-01T15:09:40;5.80;;;1.40;;
70201;SDS011;57724;52.164;5.408;2022-08-01T15:12:07;3.22;;;1.60;;
70201;SDS011;57724;52.164;5.408;2022-08-01T15:14:35;5.78;;;1.70;;
70201;SDS011;57724;52.164;5.408;2022-08-01T15:17:18;5.93;;;1.70;;
70201;SDS011;57724;52.164;5.408;2022-08-01T15:19:49;4.32;;;1.45;;
70201;SDS011;57724;52.164;5.408;2022-08-01T15:22:17;4.57;;;1.40;;
70201;SDS011;57724;52.164;5.408;2022-08-01T15:24:44;5.00;;;1.67;;
70201;SDS011;57724;52.164;5.408;2022-08-01T15:27:11;4.70;;;1.30;;
70201;SDS011;57724;52.164;5.408;2022-08-01T15:29:38;3.83;;;1.40;;
70201;SDS011;57724;52.164;5.408;2022-08-01T15:32:06;4.80;;;1.27;;
70201;SDS011;57724;52.164;5.408;2022-08-01T15:34:34;4.45;;;1.52;;
70201;SDS011;57724;52.164;5.408;2022-08-01T15:37:02;5.25;;;1.55;;
70201;SDS011;57724;52.164;5.408;2022-08-01T15:39:29;4.00;;;1.40;;
70201;SDS011;57724;52.164;5.408;2022-08-01T15:41:58;5.05;;;1.90;;
70201;SDS011;57724;52.164;5.408;2022-08-01T15:44:26;2.33;;;1.30;;
70201;SDS011;57724;52.164;5.408;2022-08-01T15:46:52;4.13;;;1.33;;
70201;SDS011;57724;52.164;5.408;2022-08-01T15:49:19;3.97;;;1.70;;